sensor_id;sensor_type;location;lat;lon;timestamp;P1;durP1;ratioP1;P2;durP2;ratioP2
16804;SDS011;8520;50.102;20.010;2022-10-17T00:00:49;28.80;;;26.53;;
16804;SDS011;8520;50.102;20.010;2022-10-17T00:03:17;26.27;;;24.30;;
16804;SDS011;8520;50.102;20.010;2022-10-17T00:05:47;27.77;;;25.60;;
16804;SDS011;8520;50.102;20.010;2022-10-17T00:08:16;28.70;;;26.43;;
16804;SDS011;8520;50.102;20.010;2022-10-17T00:10:45;31.13;;;28.80;;
16804;SDS011;8520;50.102;20.010;2022-10-17T00:13:23;30.70;;;28.27;;
16804;SDS011;8520;50.102;20.010;2022-10-17T00:15:51;30.63;;;28.43;;
16804;SDS011;8520;50.102;20.010;2022-10-17T00:18:19;31.17;;;28.87;;
16804;SDS011;8520;50.102;20.010;2022-10-17T00:20:48;31.93;;;29.63;;
16804;SDS011;8520;50.102;20.010;2022-10-17T00:23:17;32.13;;;29.67;;
16804;SDS011;8520;50.102;20.010;2022-10-17T00:25:45;32.70;;;30.33;;
16804;SDS011;8520;50.102;20.010;2022-10-17T00:28:14;34.70;;;32.30;;
16804;SDS011;8520;50.102;20.010;2022-10-17T00:30:42;35.10;;;32.60;;
16804;SDS011;8520;50.102;20.010;2022-10-17T00:33:10;36.43;;;33.83;;
16804;SDS011;8520;50.102;20.010;2022-10-17T00:35:38;35.23;;;32.83;;
16804;SDS011;8520;50.102;20.010;2022-10-17T00:38:07;35.60;;;33.10;;
16804;SDS011;8520;50.102;20.010;2022-10-17T00:40:35;36.37;;;33.60;;
16804;SDS011;8520;50.102;20.010;2022-10-17T00:43:03;35.90;;;33.40;;
16804;SDS011;8520;50.102;20.010;2022-10-17T00:45:33;35.90;;;33.30;;
16804;SDS011;8520;50.102;20.010;2022-10-17T00:48:02;38.33;;;35.53;;
16804;SDS011;8520;50.102;20.010;2022-10-17T00:50:34;38.17;;;35.40;;
16804;SDS011;8520;50.102;20.010;2022-10-17T00:53:04;36.60;;;34.00;;
16804;SDS011;8520;50.102;20.010;2022-10-17T00:55:36;36.50;;;33.90;;
16804;SDS011;8520;50.102;20.010;2022-10-17T00:58:08;36.37;;;33.77;;
16804;SDS011;8520;50.102;20.010;2022-10-17T01:00:37;36.90;;;34.30;;
16804;SDS011;8520;50.102;20.010;2022-10-17T01:03:05;36.00;;;33.50;;
16804;SDS011;8520;50.102;20.010;2022-10-17T01:05:33;33.37;;;31.17;;
16804;SDS011;8520;50.102;20.010;2022-10-17T01:08:03;33.00;;;30.67;;
16804;SDS011;8520;50.102;20.010;2022-10-17T01:10:33;33.10;;;30.73;;
16804;SDS011;8520;50.102;20.010;2022-10-17T01:13:12;31.70;;;29.50;;
16804;SDS011;8520;50.102;20.010;2022-10-17T01:15:51;30.30;;;28.30;;
16804;SDS011;8520;50.102;20.010;2022-10-17T01:18:35;29.50;;;27.43;;
16804;SDS011;8520;50.102;20.010;2022-10-17T01:21:21;29.00;;;27.10;;
16804;SDS011;8520;50.102;20.010;2022-10-17T01:27:22;33.23;;;30.63;;
16804;SDS011;8520;50.102;20.010;2022-10-17T01:30:10;29.03;;;27.03;;
16804;SDS011;8520;50.102;20.010;2022-10-17T01:32:55;30.13;;;28.13;;
16804;SDS011;8520;50.102;20.010;2022-10-17T01:35:26;28.40;;;26.50;;
16804;SDS011;8520;50.102;20.010;2022-10-17T01:38:01;28.30;;;26.40;;
16804;SDS011;8520;50.102;20.010;2022-10-17T01:40:35;29.13;;;27.20;;
16804;SDS011;8520;50.102;20.010;2022-10-17T01:43:07;28.93;;;26.83;;
16804;SDS011;8520;50.102;20.010;2022-10-17T01:45:42;28.97;;;26.50;;
16804;SDS011;8520;50.102;20.010;2022-10-17T01:48:17;27.20;;;25.40;;
16804;SDS011;8520;50.102;20.010;2022-10-17T01:50:49;27.47;;;25.57;;
16804;SDS011;8520;50.102;20.010;2022-10-17T01:53:21;26.57;;;24.90;;
16804;SDS011;8520;50.102;20.010;2022-10-17T01:55:55;26.60;;;24.70;;
16804;SDS011;8520;50.102;20.010;2022-10-17T01:58:28;27.50;;;25.70;;
16804;SDS011;8520;50.102;20.010;2022-10-17T02:01:00;28.20;;;25.97;;
16804;SDS011;8520;50.102;20.010;2022-10-17T02:03:32;28.23;;;26.27;;
16804;SDS011;8520;50.102;20.010;2022-10-17T02:06:04;28.90;;;27.00;;
16804;SDS011;8520;50.102;20.010;2022-10-17T02:08:39;29.30;;;27.30;;
16804;SDS011;8520;50.102;20.010;2022-10-17T02:11:10;30.63;;;28.33;;
16804;SDS011;8520;50.102;20.010;2022-10-17T02:13:52;30.40;;;28.17;;
16804;SDS011;8520;50.102;20.010;2022-10-17T02:16:41;31.17;;;28.83;;
16804;SDS011;8520;50.102;20.010;2022-10-17T02:19:20;30.50;;;28.13;;
16804;SDS011;8520;50.102;20.010;2022-10-17T02:22:04;26.60;;;24.80;;
16804;SDS011;8520;50.102;20.010;2022-10-17T02:24:45;28.03;;;26.07;;
16804;SDS011;8520;50.102;20.010;2022-10-17T02:27:22;27.43;;;25.47;;
16804;SDS011;8520;50.102;20.010;2022-10-17T02:29:59;25.60;;;24.00;;
16804;SDS011;8520;50.102;20.010;2022-10-17T02:32:33;24.30;;;22.70;;
16804;SDS011;8520;50.102;20.010;2022-10-17T02:35:10;26.97;;;25.10;;
16804;SDS011;8520;50.102;20.010;2022-10-17T02:37:42;28.13;;;26.00;;
16804;SDS011;8520;50.102;20.010;2022-10-17T02:40:14;27.43;;;25.63;;
16804;SDS011;8520;50.102;20.010;2022-10-17T02:42:45;29.00;;;27.00;;
16804;SDS011;8520;50.102;20.010;2022-10-17T02:45:14;29.27;;;27.17;;
16804;SDS011;8520;50.102;20.010;2022-10-17T02:47:45;30.33;;;28.10;;
16804;SDS011;8520;50.102;20.010;2022-10-17T02:50:21;29.73;;;27.73;;
16804;SDS011;8520;50.102;20.010;2022-10-17T02:52:59;30.60;;;28.43;;
16804;SDS011;8520;50.102;20.010;2022-10-17T02:55:31;31.57;;;29.20;;
16804;SDS011;8520;50.102;20.010;2022-10-17T02:58:03;31.60;;;29.43;;
16804;SDS011;8520;50.102;20.010;2022-10-17T03:00:36;30.73;;;28.53;;
16804;SDS011;8520;50.102;20.010;2022-10-17T03:03:16;31.30;;;28.90;;
16804;SDS011;8520;50.102;20.010;2022-10-17T03:05:47;31.30;;;29.30;;
16804;SDS011;8520;50.102;20.010;2022-10-17T03:08:15;28.53;;;26.77;;
16804;SDS011;8520;50.102;20.010;2022-10-17T03:10:43;27.30;;;25.60;;
16804;SDS011;8520;50.102;20.010;2022-10-17T03:13:11;27.23;;;25.53;;
16804;SDS011;8520;50.102;20.010;2022-10-17T03:15:40;27.90;;;25.90;;
16804;SDS011;8520;50.102;20.010;2022-10-17T03:18:08;30.23;;;28.13;;
16804;SDS011;8520;50.102;20.010;2022-10-17T03:20:36;32.53;;;30.03;;
16804;SDS011;8520;50.102;20.010;2022-10-17T03:23:06;32.23;;;29.37;;
16804;SDS011;8520;50.102;20.010;2022-10-17T03:25:35;28.73;;;26.83;;
16804;SDS011;8520;50.102;20.010;2022-10-17T03:28:03;29.40;;;27.30;;
16804;SDS011;8520;50.102;20.010;2022-10-17T03:30:32;28.87;;;26.97;;
16804;SDS011;8520;50.102;20.010;2022-10-17T03:33:00;28.53;;;26.67;;
16804;SDS011;8520;50.102;20.010;2022-10-17T03:35:29;28.40;;;26.50;;
16804;SDS011;8520;50.102;20.010;2022-10-17T03:37:57;29.60;;;27.57;;
16804;SDS011;8520;50.102;20.010;2022-10-17T03:40:28;28.27;;;26.57;;
16804;SDS011;8520;50.102;20.010;2022-10-17T03:42:56;28.20;;;26.33;;
16804;SDS011;8520;50.102;20.010;2022-10-17T03:45:24;28.40;;;26.60;;
16804;SDS011;8520;50.102;20.010;2022-10-17T03:47:52;28.63;;;26.73;;
16804;SDS011;8520;50.102;20.010;2022-10-17T03:50:20;29.40;;;27.50;;
16804;SDS011;8520;50.102;20.010;2022-10-17T03:52:48;30.53;;;28.60;;
16804;SDS011;8520;50.102;20.010;2022-10-17T03:55:17;30.00;;;28.00;;
16804;SDS011;8520;50.102;20.010;2022-10-17T03:57:47;32.87;;;30.57;;
16804;SDS011;8520;50.102;20.010;2022-10-17T04:00:18;34.43;;;32.10;;
16804;SDS011;8520;50.102;20.010;2022-10-17T04:02:53;36.50;;;33.83;;
16804;SDS011;8520;50.102;20.010;2022-10-17T04:05:21;35.30;;;32.53;;
16804;SDS011;8520;50.102;20.010;2022-10-17T04:07:49;34.50;;;32.17;;
16804;SDS011;8520;50.102;20.010;2022-10-17T04:10:21;34.60;;;32.00;;
16804;SDS011;8520;50.102;20.010;2022-10-17T04:12:51;33.97;;;31.43;;
16804;SDS011;8520;50.102;20.010;2022-10-17T04:15:19;34.73;;;31.80;;
16804;SDS011;8520;50.102;20.010;2022-10-17T04:17:47;33.47;;;30.97;;
16804;SDS011;8520;50.102;20.010;2022-10-17T04:20:16;34.80;;;32.00;;
16804;SDS011;8520;50.102;20.010;2022-10-17T04:22:44;36.00;;;33.23;;
16804;SDS011;8520;50.102;20.010;2022-10-17T04:25:12;35.47;;;32.97;;
16804;SDS011;8520;50.102;20.010;2022-10-17T04:27:43;35.60;;;33.00;;
16804;SDS011;8520;50.102;20.010;2022-10-17T04:30:13;37.90;;;34.90;;
16804;SDS011;8520;50.102;20.010;2022-10-17T04:32:41;40.83;;;37.60;;
16804;SDS011;8520;50.102;20.010;2022-10-17T04:35:18;38.80;;;35.90;;
16804;SDS011;8520;50.102;20.010;2022-10-17T04:37:52;37.03;;;34.33;;
16804;SDS011;8520;50.102;20.010;2022-10-17T04:40:20;41.00;;;37.80;;
16804;SDS011;8520;50.102;20.010;2022-10-17T04:42:51;40.90;;;37.90;;
16804;SDS011;8520;50.102;20.010;2022-10-17T04:45:26;43.43;;;40.33;;
16804;SDS011;8520;50.102;20.010;2022-10-17T04:47:58;46.73;;;43.53;;
16804;SDS011;8520;50.102;20.010;2022-10-17T04:50:26;46.37;;;43.00;;
16804;SDS011;8520;50.102;20.010;2022-10-17T04:53:13;47.97;;;44.73;;
16804;SDS011;8520;50.102;20.010;2022-10-17T04:55:42;48.10;;;44.63;;
16804;SDS011;8520;50.102;20.010;2022-10-17T04:58:10;46.80;;;43.73;;
16804;SDS011;8520;50.102;20.010;2022-10-17T05:00:39;47.87;;;44.57;;
16804;SDS011;8520;50.102;20.010;2022-10-17T05:03:20;48.50;;;45.07;;
16804;SDS011;8520;50.102;20.010;2022-10-17T05:05:48;48.93;;;45.33;;
16804;SDS011;8520;50.102;20.010;2022-10-17T05:08:16;46.10;;;43.10;;
16804;SDS011;8520;50.102;20.010;2022-10-17T05:10:44;46.97;;;43.87;;
16804;SDS011;8520;50.102;20.010;2022-10-17T05:13:13;47.50;;;44.53;;
16804;SDS011;8520;50.102;20.010;2022-10-17T05:15:43;48.40;;;45.30;;
16804;SDS011;8520;50.102;20.010;2022-10-17T05:18:11;53.73;;;49.70;;
16804;SDS011;8520;50.102;20.010;2022-10-17T05:20:41;52.30;;;48.90;;
16804;SDS011;8520;50.102;20.010;2022-10-17T05:23:09;52.03;;;48.73;;
16804;SDS011;8520;50.102;20.010;2022-10-17T05:25:41;51.57;;;48.27;;
16804;SDS011;8520;50.102;20.010;2022-10-17T05:28:10;50.63;;;47.33;;
16804;SDS011;8520;50.102;20.010;2022-10-17T05:30:40;49.57;;;46.40;;
16804;SDS011;8520;50.102;20.010;2022-10-17T05:33:10;47.93;;;44.97;;
16804;SDS011;8520;50.102;20.010;2022-10-17T05:35:38;47.40;;;44.33;;
16804;SDS011;8520;50.102;20.010;2022-10-17T05:38:06;45.80;;;42.87;;
16804;SDS011;8520;50.102;20.010;2022-10-17T05:40:36;47.30;;;44.23;;
16804;SDS011;8520;50.102;20.010;2022-10-17T05:43:05;47.53;;;44.33;;
16804;SDS011;8520;50.102;20.010;2022-10-17T05:45:34;45.23;;;42.03;;
16804;SDS011;8520;50.102;20.010;2022-10-17T05:48:03;46.00;;;42.50;;
16804;SDS011;8520;50.102;20.010;2022-10-17T05:50:33;43.33;;;40.13;;
16804;SDS011;8520;50.102;20.010;2022-10-17T05:53:07;42.00;;;38.90;;
16804;SDS011;8520;50.102;20.010;2022-10-17T05:55:41;42.10;;;38.90;;
16804;SDS011;8520;50.102;20.010;2022-10-17T05:58:09;42.00;;;38.57;;
16804;SDS011;8520;50.102;20.010;2022-10-17T06:00:51;40.70;;;37.60;;
16804;SDS011;8520;50.102;20.010;2022-10-17T06:03:25;40.63;;;37.67;;
16804;SDS011;8520;50.102;20.010;2022-10-17T06:05:55;39.50;;;36.57;;
16804;SDS011;8520;50.102;20.010;2022-10-17T06:08:23;41.10;;;38.17;;
16804;SDS011;8520;50.102;20.010;2022-10-17T06:10:51;42.60;;;39.37;;
16804;SDS011;8520;50.102;20.010;2022-10-17T06:13:20;42.90;;;39.70;;
16804;SDS011;8520;50.102;20.010;2022-10-17T06:15:50;42.27;;;39.37;;
16804;SDS011;8520;50.102;20.010;2022-10-17T06:18:18;42.70;;;39.33;;
16804;SDS011;8520;50.102;20.010;2022-10-17T06:20:46;41.37;;;38.30;;
16804;SDS011;8520;50.102;20.010;2022-10-17T06:23:18;42.57;;;39.13;;
16804;SDS011;8520;50.102;20.010;2022-10-17T06:25:56;42.33;;;39.03;;
16804;SDS011;8520;50.102;20.010;2022-10-17T06:28:25;41.30;;;38.30;;
16804;SDS011;8520;50.102;20.010;2022-10-17T06:30:53;39.87;;;36.97;;
16804;SDS011;8520;50.102;20.010;2022-10-17T06:33:21;41.20;;;37.97;;
16804;SDS011;8520;50.102;20.010;2022-10-17T06:35:51;39.57;;;36.83;;
16804;SDS011;8520;50.102;20.010;2022-10-17T06:38:22;39.70;;;36.87;;
16804;SDS011;8520;50.102;20.010;2022-10-17T06:40:53;40.47;;;37.53;;
16804;SDS011;8520;50.102;20.010;2022-10-17T06:43:23;38.13;;;35.27;;
16804;SDS011;8520;50.102;20.010;2022-10-17T06:46:19;40.00;;;36.97;;
16804;SDS011;8520;50.102;20.010;2022-10-17T06:48:54;38.50;;;35.30;;
16804;SDS011;8520;50.102;20.010;2022-10-17T06:51:41;40.73;;;36.93;;
16804;SDS011;8520;50.102;20.010;2022-10-17T06:54:13;38.23;;;34.87;;
16804;SDS011;8520;50.102;20.010;2022-10-17T06:57:01;38.40;;;35.00;;
16804;SDS011;8520;50.102;20.010;2022-10-17T06:59:39;38.23;;;35.13;;
16804;SDS011;8520;50.102;20.010;2022-10-17T07:02:10;37.83;;;34.43;;
16804;SDS011;8520;50.102;20.010;2022-10-17T07:04:38;38.80;;;34.87;;
16804;SDS011;8520;50.102;20.010;2022-10-17T07:07:06;41.07;;;36.90;;
16804;SDS011;8520;50.102;20.010;2022-10-17T07:09:36;38.27;;;34.40;;
16804;SDS011;8520;50.102;20.010;2022-10-17T07:12:04;39.33;;;35.70;;
16804;SDS011;8520;50.102;20.010;2022-10-17T07:14:34;37.50;;;34.27;;
16804;SDS011;8520;50.102;20.010;2022-10-17T07:17:02;36.20;;;33.20;;
16804;SDS011;8520;50.102;20.010;2022-10-17T07:19:31;35.30;;;32.10;;
16804;SDS011;8520;50.102;20.010;2022-10-17T07:21:59;35.97;;;32.40;;
16804;SDS011;8520;50.102;20.010;2022-10-17T07:24:29;37.00;;;33.40;;
16804;SDS011;8520;50.102;20.010;2022-10-17T07:27:07;37.73;;;34.37;;
16804;SDS011;8520;50.102;20.010;2022-10-17T07:29:36;37.97;;;34.43;;
16804;SDS011;8520;50.102;20.010;2022-10-17T07:32:10;38.23;;;34.83;;
16804;SDS011;8520;50.102;20.010;2022-10-17T07:34:38;37.73;;;34.40;;
16804;SDS011;8520;50.102;20.010;2022-10-17T07:37:08;37.37;;;33.63;;
16804;SDS011;8520;50.102;20.010;2022-10-17T07:39:40;36.57;;;33.57;;
16804;SDS011;8520;50.102;20.010;2022-10-17T07:42:09;36.20;;;32.77;;
16804;SDS011;8520;50.102;20.010;2022-10-17T07:44:37;37.58;;;33.80;;
16804;SDS011;8520;50.102;20.010;2022-10-17T07:47:05;36.07;;;32.63;;
16804;SDS011;8520;50.102;20.010;2022-10-17T07:49:35;35.55;;;31.90;;
16804;SDS011;8520;50.102;20.010;2022-10-17T07:52:08;35.73;;;32.27;;
16804;SDS011;8520;50.102;20.010;2022-10-17T07:54:37;36.30;;;32.67;;
16804;SDS011;8520;50.102;20.010;2022-10-17T07:57:05;39.72;;;32.28;;
16804;SDS011;8520;50.102;20.010;2022-10-17T07:59:35;34.92;;;31.63;;
16804;SDS011;8520;50.102;20.010;2022-10-17T08:02:04;32.67;;;29.88;;
16804;SDS011;8520;50.102;20.010;2022-10-17T08:04:33;35.08;;;31.30;;
16804;SDS011;8520;50.102;20.010;2022-10-17T08:07:02;32.47;;;29.20;;
16804;SDS011;8520;50.102;20.010;2022-10-17T08:09:47;33.13;;;29.73;;
16804;SDS011;8520;50.102;20.010;2022-10-17T08:12:15;34.53;;;30.15;;
16804;SDS011;8520;50.102;20.010;2022-10-17T08:14:44;32.03;;;28.85;;
16804;SDS011;8520;50.102;20.010;2022-10-17T08:17:13;32.28;;;28.90;;
16804;SDS011;8520;50.102;20.010;2022-10-17T08:19:41;31.65;;;28.30;;
16804;SDS011;8520;50.102;20.010;2022-10-17T08:22:09;30.27;;;27.35;;
16804;SDS011;8520;50.102;20.010;2022-10-17T08:24:37;28.10;;;25.50;;
16804;SDS011;8520;50.102;20.010;2022-10-17T08:27:05;30.30;;;24.85;;
16804;SDS011;8520;50.102;20.010;2022-10-17T08:29:37;27.63;;;24.88;;
16804;SDS011;8520;50.102;20.010;2022-10-17T08:32:06;27.88;;;25.17;;
16804;SDS011;8520;50.102;20.010;2022-10-17T08:34:35;27.83;;;25.27;;
16804;SDS011;8520;50.102;20.010;2022-10-17T08:37:03;26.65;;;24.15;;
16804;SDS011;8520;50.102;20.010;2022-10-17T08:39:32;24.75;;;22.10;;
16804;SDS011;8520;50.102;20.010;2022-10-17T08:42:02;23.33;;;21.10;;
16804;SDS011;8520;50.102;20.010;2022-10-17T08:44:56;23.50;;;21.48;;
16804;SDS011;8520;50.102;20.010;2022-10-17T08:47:35;21.73;;;19.60;;
16804;SDS011;8520;50.102;20.010;2022-10-17T08:50:05;19.52;;;17.65;;
16804;SDS011;8520;50.102;20.010;2022-10-17T08:52:39;18.80;;;17.17;;
16804;SDS011;8520;50.102;20.010;2022-10-17T08:55:12;16.45;;;15.05;;
16804;SDS011;8520;50.102;20.010;2022-10-17T08:57:42;15.65;;;14.25;;
16804;SDS011;8520;50.102;20.010;2022-10-17T09:00:12;13.85;;;12.85;;
16804;SDS011;8520;50.102;20.010;2022-10-17T09:02:49;14.73;;;13.57;;
16804;SDS011;8520;50.102;20.010;2022-10-17T09:08:19;13.80;;;12.60;;
16804;SDS011;8520;50.102;20.010;2022-10-17T09:10:57;16.48;;;14.80;;
16804;SDS011;8520;50.102;20.010;2022-10-17T09:13:39;14.13;;;13.07;;
16804;SDS011;8520;50.102;20.010;2022-10-17T09:16:24;12.48;;;11.30;;
16804;SDS011;8520;50.102;20.010;2022-10-17T09:19:16;12.35;;;11.45;;
16804;SDS011;8520;50.102;20.010;2022-10-17T09:21:48;11.93;;;11.10;;
16804;SDS011;8520;50.102;20.010;2022-10-17T09:24:21;12.68;;;11.43;;
16804;SDS011;8520;50.102;20.010;2022-10-17T09:26:54;11.73;;;10.77;;
16804;SDS011;8520;50.102;20.010;2022-10-17T09:29:23;12.10;;;11.20;;
16804;SDS011;8520;50.102;20.010;2022-10-17T09:32:02;12.45;;;11.48;;
16804;SDS011;8520;50.102;20.010;2022-10-17T09:34:36;12.65;;;11.55;;
16804;SDS011;8520;50.102;20.010;2022-10-17T09:37:04;12.55;;;11.50;;
16804;SDS011;8520;50.102;20.010;2022-10-17T09:39:40;12.40;;;11.40;;
16804;SDS011;8520;50.102;20.010;2022-10-17T09:42:11;12.90;;;11.85;;
16804;SDS011;8520;50.102;20.010;2022-10-17T09:44:41;12.57;;;11.40;;
16804;SDS011;8520;50.102;20.010;2022-10-17T09:47:25;13.90;;;12.45;;
16804;SDS011;8520;50.102;20.010;2022-10-17T09:49:57;12.13;;;11.13;;
16804;SDS011;8520;50.102;20.010;2022-10-17T09:52:26;13.30;;;12.07;;
16804;SDS011;8520;50.102;20.010;2022-10-17T09:54:58;13.48;;;11.88;;
16804;SDS011;8520;50.102;20.010;2022-10-17T09:57:28;12.50;;;11.18;;
16804;SDS011;8520;50.102;20.010;2022-10-17T10:00:24;14.82;;;11.88;;
16804;SDS011;8520;50.102;20.010;2022-10-17T10:03:10;13.38;;;11.00;;
16804;SDS011;8520;50.102;20.010;2022-10-17T10:05:42;14.45;;;10.85;;
16804;SDS011;8520;50.102;20.010;2022-10-17T10:08:27;11.60;;;10.60;;
16804;SDS011;8520;50.102;20.010;2022-10-17T10:10:57;12.32;;;11.32;;
16804;SDS011;8520;50.102;20.010;2022-10-17T10:13:30;11.57;;;10.50;;
16804;SDS011;8520;50.102;20.010;2022-10-17T10:16:13;11.52;;;10.48;;
16804;SDS011;8520;50.102;20.010;2022-10-17T10:18:43;12.40;;;11.10;;
16804;SDS011;8520;50.102;20.010;2022-10-17T10:21:16;11.43;;;10.48;;
16804;SDS011;8520;50.102;20.010;2022-10-17T10:24:01;11.95;;;10.63;;
16804;SDS011;8520;50.102;20.010;2022-10-17T10:26:33;11.73;;;10.82;;
16804;SDS011;8520;50.102;20.010;2022-10-17T10:29:17;11.45;;;10.63;;
16804;SDS011;8520;50.102;20.010;2022-10-17T10:31:49;12.13;;;10.77;;
16804;SDS011;8520;50.102;20.010;2022-10-17T10:34:20;11.35;;;10.38;;
16804;SDS011;8520;50.102;20.010;2022-10-17T10:36:52;11.80;;;10.73;;
16804;SDS011;8520;50.102;20.010;2022-10-17T10:39:39;13.18;;;10.77;;
16804;SDS011;8520;50.102;20.010;2022-10-17T10:42:19;11.85;;;10.45;;
16804;SDS011;8520;50.102;20.010;2022-10-17T10:44:50;11.70;;;10.73;;
16804;SDS011;8520;50.102;20.010;2022-10-17T10:47:22;12.88;;;10.98;;
16804;SDS011;8520;50.102;20.010;2022-10-17T10:50:07;10.98;;;10.05;;
16804;SDS011;8520;50.102;20.010;2022-10-17T10:52:45;16.90;;;11.18;;
16804;SDS011;8520;50.102;20.010;2022-10-17T10:55:20;11.88;;;10.57;;
16804;SDS011;8520;50.102;20.010;2022-10-17T10:57:54;14.50;;;11.73;;
16804;SDS011;8520;50.102;20.010;2022-10-17T11:00:29;14.75;;;10.98;;
16804;SDS011;8520;50.102;20.010;2022-10-17T11:03:00;13.15;;;10.68;;
16804;SDS011;8520;50.102;20.010;2022-10-17T11:05:40;14.20;;;10.15;;
16804;SDS011;8520;50.102;20.010;2022-10-17T11:08:15;12.65;;;10.98;;
16804;SDS011;8520;50.102;20.010;2022-10-17T11:10:52;10.95;;;10.15;;
16804;SDS011;8520;50.102;20.010;2022-10-17T11:13:29;11.73;;;10.52;;
16804;SDS011;8520;50.102;20.010;2022-10-17T11:16:03;11.73;;;10.75;;
16804;SDS011;8520;50.102;20.010;2022-10-17T11:18:43;11.40;;;10.43;;
16804;SDS011;8520;50.102;20.010;2022-10-17T11:21:15;12.05;;;10.88;;
16804;SDS011;8520;50.102;20.010;2022-10-17T11:23:52;11.38;;;10.27;;
16804;SDS011;8520;50.102;20.010;2022-10-17T11:26:34;12.38;;;11.25;;
16804;SDS011;8520;50.102;20.010;2022-10-17T11:29:08;11.70;;;10.20;;
16804;SDS011;8520;50.102;20.010;2022-10-17T11:31:41;11.98;;;10.85;;
16804;SDS011;8520;50.102;20.010;2022-10-17T11:34:14;11.40;;;10.18;;
16804;SDS011;8520;50.102;20.010;2022-10-17T11:36:55;10.27;;;9.38;;
16804;SDS011;8520;50.102;20.010;2022-10-17T11:39:28;10.55;;;9.52;;
16804;SDS011;8520;50.102;20.010;2022-10-17T11:42:02;11.65;;;9.93;;
16804;SDS011;8520;50.102;20.010;2022-10-17T11:44:33;10.93;;;10.05;;
16804;SDS011;8520;50.102;20.010;2022-10-17T11:47:05;11.35;;;10.35;;
16804;SDS011;8520;50.102;20.010;2022-10-17T11:49:50;11.40;;;10.20;;
16804;SDS011;8520;50.102;20.010;2022-10-17T11:52:26;10.73;;;9.73;;
16804;SDS011;8520;50.102;20.010;2022-10-17T11:55:20;10.77;;;9.77;;
16804;SDS011;8520;50.102;20.010;2022-10-17T11:57:53;10.02;;;9.27;;
16804;SDS011;8520;50.102;20.010;2022-10-17T12:00:35;9.75;;;9.15;;
16804;SDS011;8520;50.102;20.010;2022-10-17T12:03:22;11.93;;;9.07;;
16804;SDS011;8520;50.102;20.010;2022-10-17T12:05:59;9.75;;;8.60;;
16804;SDS011;8520;50.102;20.010;2022-10-17T12:08:37;11.35;;;9.88;;
16804;SDS011;8520;50.102;20.010;2022-10-17T12:11:22;10.25;;;9.35;;
16804;SDS011;8520;50.102;20.010;2022-10-17T12:14:00;15.25;;;10.63;;
16804;SDS011;8520;50.102;20.010;2022-10-17T12:16:41;12.63;;;9.77;;
16804;SDS011;8520;50.102;20.010;2022-10-17T12:19:18;11.10;;;9.57;;
16804;SDS011;8520;50.102;20.010;2022-10-17T12:21:55;11.45;;;10.45;;
16804;SDS011;8520;50.102;20.010;2022-10-17T12:24:28;10.57;;;9.85;;
16804;SDS011;8520;50.102;20.010;2022-10-17T12:29:49;10.77;;;10.07;;
16804;SDS011;8520;50.102;20.010;2022-10-17T12:32:24;10.10;;;9.20;;
16804;SDS011;8520;50.102;20.010;2022-10-17T12:35:03;11.23;;;10.43;;
16804;SDS011;8520;50.102;20.010;2022-10-17T12:40:50;11.23;;;10.23;;
16804;SDS011;8520;50.102;20.010;2022-10-17T12:52:16;11.20;;;10.30;;
16804;SDS011;8520;50.102;20.010;2022-10-17T12:54:53;11.10;;;10.07;;
16804;SDS011;8520;50.102;20.010;2022-10-17T12:57:46;9.68;;;8.93;;
16804;SDS011;8520;50.102;20.010;2022-10-17T13:00:19;9.63;;;8.93;;
16804;SDS011;8520;50.102;20.010;2022-10-17T13:02:51;12.40;;;8.77;;
16804;SDS011;8520;50.102;20.010;2022-10-17T13:05:24;10.30;;;9.50;;
16804;SDS011;8520;50.102;20.010;2022-10-17T13:07:56;9.90;;;9.18;;
16804;SDS011;8520;50.102;20.010;2022-10-17T13:10:28;9.57;;;8.60;;
16804;SDS011;8520;50.102;20.010;2022-10-17T13:13:00;10.88;;;9.93;;
16804;SDS011;8520;50.102;20.010;2022-10-17T13:15:33;9.18;;;8.50;;
16804;SDS011;8520;50.102;20.010;2022-10-17T13:18:02;10.38;;;8.98;;
16804;SDS011;8520;50.102;20.010;2022-10-17T13:20:31;10.13;;;9.52;;
16804;SDS011;8520;50.102;20.010;2022-10-17T13:23:01;9.55;;;8.85;;
16804;SDS011;8520;50.102;20.010;2022-10-17T13:25:29;8.95;;;8.45;;
16804;SDS011;8520;50.102;20.010;2022-10-17T13:28:02;8.98;;;8.38;;
16804;SDS011;8520;50.102;20.010;2022-10-17T13:30:33;9.57;;;8.90;;
16804;SDS011;8520;50.102;20.010;2022-10-17T13:33:02;10.20;;;9.45;;
16804;SDS011;8520;50.102;20.010;2022-10-17T13:35:45;9.10;;;8.50;;
16804;SDS011;8520;50.102;20.010;2022-10-17T13:38:32;9.27;;;8.63;;
16804;SDS011;8520;50.102;20.010;2022-10-17T13:41:09;9.40;;;8.80;;
16804;SDS011;8520;50.102;20.010;2022-10-17T13:44:00;9.05;;;8.35;;
16804;SDS011;8520;50.102;20.010;2022-10-17T13:46:34;9.55;;;8.75;;
16804;SDS011;8520;50.102;20.010;2022-10-17T13:49:09;9.02;;;8.43;;
16804;SDS011;8520;50.102;20.010;2022-10-17T13:51:42;10.02;;;9.23;;
16804;SDS011;8520;50.102;20.010;2022-10-17T13:57:16;9.15;;;8.45;;
16804;SDS011;8520;50.102;20.010;2022-10-17T13:59:46;9.98;;;9.05;;
16804;SDS011;8520;50.102;20.010;2022-10-17T14:02:17;9.70;;;9.00;;
16804;SDS011;8520;50.102;20.010;2022-10-17T14:04:58;8.82;;;8.23;;
16804;SDS011;8520;50.102;20.010;2022-10-17T14:07:45;9.88;;;9.15;;
16804;SDS011;8520;50.102;20.010;2022-10-17T14:10:39;9.73;;;8.93;;
16804;SDS011;8520;50.102;20.010;2022-10-17T14:13:13;9.70;;;8.80;;
16804;SDS011;8520;50.102;20.010;2022-10-17T14:15:47;9.32;;;8.68;;
16804;SDS011;8520;50.102;20.010;2022-10-17T14:18:17;10.93;;;10.02;;
16804;SDS011;8520;50.102;20.010;2022-10-17T14:20:48;9.88;;;8.98;;
16804;SDS011;8520;50.102;20.010;2022-10-17T14:23:38;10.82;;;10.07;;
16804;SDS011;8520;50.102;20.010;2022-10-17T14:26:11;9.90;;;9.20;;
16804;SDS011;8520;50.102;20.010;2022-10-17T14:28:42;10.05;;;9.10;;
16804;SDS011;8520;50.102;20.010;2022-10-17T14:31:16;11.63;;;10.13;;
16804;SDS011;8520;50.102;20.010;2022-10-17T14:33:48;9.77;;;8.93;;
16804;SDS011;8520;50.102;20.010;2022-10-17T14:36:19;10.13;;;9.38;;
16804;SDS011;8520;50.102;20.010;2022-10-17T14:38:49;9.23;;;8.43;;
16804;SDS011;8520;50.102;20.010;2022-10-17T14:41:22;9.73;;;9.13;;
16804;SDS011;8520;50.102;20.010;2022-10-17T14:44:13;10.68;;;9.80;;
16804;SDS011;8520;50.102;20.010;2022-10-17T14:46:47;10.23;;;9.45;;
16804;SDS011;8520;50.102;20.010;2022-10-17T14:49:21;10.40;;;9.50;;
16804;SDS011;8520;50.102;20.010;2022-10-17T14:52:22;10.32;;;9.50;;
16804;SDS011;8520;50.102;20.010;2022-10-17T14:54:54;9.07;;;8.18;;
16804;SDS011;8520;50.102;20.010;2022-10-17T14:57:26;10.45;;;9.45;;
16804;SDS011;8520;50.102;20.010;2022-10-17T15:00:01;10.57;;;9.55;;
16804;SDS011;8520;50.102;20.010;2022-10-17T15:02:30;10.13;;;9.38;;
16804;SDS011;8520;50.102;20.010;2022-10-17T15:04:58;10.05;;;9.30;;
16804;SDS011;8520;50.102;20.010;2022-10-17T15:07:26;10.68;;;9.73;;
16804;SDS011;8520;50.102;20.010;2022-10-17T15:09:54;9.73;;;8.93;;
16804;SDS011;8520;50.102;20.010;2022-10-17T15:12:23;10.88;;;9.98;;
16804;SDS011;8520;50.102;20.010;2022-10-17T15:14:53;10.20;;;9.20;;
16804;SDS011;8520;50.102;20.010;2022-10-17T15:17:23;9.65;;;8.60;;
16804;SDS011;8520;50.102;20.010;2022-10-17T15:19:53;9.73;;;8.77;;
16804;SDS011;8520;50.102;20.010;2022-10-17T15:22:22;9.73;;;8.73;;
16804;SDS011;8520;50.102;20.010;2022-10-17T15:24:50;10.20;;;9.15;;